createdAt,value
2018-06-17T00:00:05.759Z,0
2018-06-17T00:01:07.118Z,0
2018-06-17T00:02:08.480Z,0
2018-06-17T00:03:09.852Z,0
2018-06-17T00:04:11.208Z,0
2018-06-17T00:05:12.570Z,0
2018-06-17T00:06:13.943Z,0
2018-06-17T00:07:15.300Z,0
2018-06-17T00:08:16.679Z,0
2018-06-17T00:09:18.035Z,0
2018-06-17T00:10:19.393Z,0
2018-06-17T00:11:20.754Z,0
2018-06-17T00:12:22.110Z,0
2018-06-17T00:13:23.478Z,0
2018-06-17T00:14:24.849Z,0
2018-06-17T00:15:26.214Z,0
2018-06-17T00:16:27.594Z,0
2018-06-17T00:17:28.958Z,0
2018-06-17T00:18:30.331Z,0
2018-06-17T00:19:31.688Z,0
2018-06-17T00:20:33.051Z,0
2018-06-17T00:21:34.412Z,0
2018-06-17T00:22:35.792Z,0
2018-06-17T00:23:37.170Z,0
2018-06-17T00:24:38.522Z,0
2018-06-17T00:25:39.881Z,0
2018-06-17T00:26:41.245Z,0
2018-06-17T00:27:42.614Z,0
2018-06-17T00:28:43.968Z,0
2018-06-17T00:29:45.337Z,0
2018-06-17T00:30:46.703Z,0
2018-06-17T00:31:48.064Z,0
2018-06-17T00:32:49.419Z,0
2018-06-17T00:33:50.794Z,0
2018-06-17T00:34:52.159Z,0
2018-06-17T00:35:53.524Z,0
2018-06-17T00:36:54.884Z,0
2018-06-17T00:37:56.255Z,0
2018-06-17T00:38:57.614Z,0
2018-06-17T00:39:58.982Z,0
2018-06-17T00:41:00.347Z,0
2018-06-17T00:42:01.719Z,0
2018-06-17T00:43:03.084Z,0
2018-06-17T00:44:04.453Z,0
2018-06-17T00:45:05.818Z,0
2018-06-17T00:46:07.229Z,0
2018-06-17T00:47:08.553Z,0
2018-06-17T00:48:09.925Z,0
2018-06-17T00:49:11.285Z,0
2018-06-17T00:50:12.650Z,0
2018-06-17T00:51:14.033Z,0
2018-06-17T00:52:15.463Z,0
2018-06-17T00:53:16.834Z,0
2018-06-17T00:54:18.202Z,0
2018-06-17T00:55:19.558Z,0
2018-06-17T00:56:20.927Z,0
2018-06-17T00:57:22.295Z,0
2018-06-17T00:58:23.673Z,0
2018-06-17T00:59:25.030Z,0
2018-06-17T01:00:26.400Z,0
2018-06-17T01:01:28.325Z,0
2018-06-17T01:02:29.680Z,0
2018-06-17T01:03:31.055Z,0
2018-06-17T01:04:32.414Z,0
2018-06-17T01:05:33.783Z,0
2018-06-17T01:06:35.152Z,0
2018-06-17T01:07:36.511Z,0
2018-06-17T01:08:37.869Z,0
2018-06-17T01:09:39.224Z,0
2018-06-17T01:10:40.588Z,0
2018-06-17T01:11:41.963Z,0
2018-06-17T01:12:43.323Z,0
2018-06-17T01:13:44.684Z,0
2018-06-17T01:14:46.049Z,0
2018-06-17T01:15:47.404Z,0
2018-06-17T01:16:48.774Z,0
2018-06-17T01:17:50.131Z,0
2018-06-17T01:18:51.569Z,0
2018-06-17T01:19:52.878Z,0
2018-06-17T01:20:54.229Z,0
2018-06-17T01:21:55.599Z,0
2018-06-17T01:22:56.959Z,0
2018-06-17T01:23:58.879Z,0
2018-06-17T01:25:00.250Z,0
2018-06-17T01:26:01.621Z,0
2018-06-17T01:27:02.979Z,0
2018-06-17T01:28:04.355Z,0
2018-06-17T01:29:05.716Z,0
2018-06-17T01:30:07.075Z,0
2018-06-17T01:31:08.434Z,0
2018-06-17T01:32:09.790Z,0
2018-06-17T01:33:11.154Z,0
2018-06-17T01:34:12.514Z,0
2018-06-17T01:35:13.878Z,0
2018-06-17T01:36:15.245Z,0
2018-06-17T01:37:16.606Z,0
2018-06-17T01:38:17.984Z,0
2018-06-17T01:39:19.344Z,0
2018-06-17T01:40:20.715Z,0
2018-06-17T01:41:22.074Z,0
2018-06-17T01:42:23.444Z,0
2018-06-17T01:43:24.810Z,0
2018-06-17T01:44:26.180Z,0
2018-06-17T01:45:27.544Z,0
2018-06-17T01:46:28.910Z,0
2018-06-17T01:47:30.279Z,0
2018-06-17T01:48:31.646Z,0
2018-06-17T01:49:33.003Z,0
2018-06-17T01:50:34.386Z,0
2018-06-17T01:51:35.725Z,0
2018-06-17T01:52:37.095Z,0
2018-06-17T01:53:38.440Z,0
2018-06-17T01:54:39.806Z,0
2018-06-17T01:55:41.170Z,0
2018-06-17T01:56:42.541Z,0
2018-06-17T01:57:43.896Z,0
2018-06-17T01:58:45.254Z,0
2018-06-17T01:59:46.614Z,0
2018-06-17T02:00:47.983Z,0
2018-06-17T02:01:49.335Z,0
2018-06-17T02:02:50.699Z,0
2018-06-17T02:03:52.066Z,0
2018-06-17T02:04:53.433Z,0
2018-06-17T02:05:54.793Z,0
2018-06-17T02:06:56.158Z,0
2018-06-17T02:07:57.515Z,0
2018-06-17T02:08:58.899Z,0
2018-06-17T02:10:00.268Z,0
2018-06-17T02:11:01.629Z,0
2018-06-17T02:12:03.004Z,0
2018-06-17T02:13:04.364Z,0
2018-06-17T02:14:05.720Z,0
2018-06-17T02:15:07.079Z,0
2018-06-17T02:16:08.440Z,0
2018-06-17T02:17:09.800Z,0
2018-06-17T02:18:11.165Z,0
2018-06-17T02:19:12.539Z,0
2018-06-17T02:20:13.901Z,0
2018-06-17T02:21:15.259Z,0
2018-06-17T02:22:16.629Z,0
2018-06-17T02:23:17.989Z,0
2018-06-17T02:24:19.350Z,0
2018-06-17T02:25:20.711Z,0
2018-06-17T02:26:22.201Z,0
2018-06-17T02:27:23.565Z,0
2018-06-17T02:28:24.931Z,0
2018-06-17T02:29:26.285Z,0
2018-06-17T02:30:27.640Z,0
2018-06-17T02:31:29.009Z,0
2018-06-17T02:32:30.371Z,0
2018-06-17T02:33:31.727Z,0
2018-06-17T02:34:33.089Z,0
2018-06-17T02:35:34.452Z,0
2018-06-17T02:36:35.816Z,0
2018-06-17T02:37:37.192Z,0
2018-06-17T02:38:38.556Z,0
2018-06-17T02:39:39.922Z,0
2018-06-17T02:40:41.281Z,0
2018-06-17T02:41:42.642Z,0
2018-06-17T02:42:44.011Z,0
2018-06-17T02:43:45.378Z,0
2018-06-17T02:44:46.730Z,0
2018-06-17T02:45:48.101Z,0
2018-06-17T02:46:49.470Z,0
2018-06-17T02:47:50.831Z,0
2018-06-17T02:48:52.191Z,0
2018-06-17T02:49:53.547Z,0
2018-06-17T02:50:54.917Z,0
2018-06-17T02:51:56.285Z,0
2018-06-17T02:52:58.370Z,0
2018-06-17T02:53:59.736Z,0
2018-06-17T02:55:01.105Z,0
2018-06-17T02:56:02.465Z,0
2018-06-17T02:57:03.838Z,0
2018-06-17T02:58:05.206Z,0
2018-06-17T02:59:06.580Z,0
2018-06-17T03:00:07.944Z,0
2018-06-17T03:01:09.314Z,0
2018-06-17T03:02:10.675Z,0
2018-06-17T03:03:12.038Z,0
2018-06-17T03:04:13.401Z,0
2018-06-17T03:05:14.775Z,0
2018-06-17T03:06:16.150Z,0
2018-06-17T03:07:17.530Z,0
2018-06-17T03:08:18.895Z,0
2018-06-17T03:09:20.265Z,0
2018-06-17T03:10:21.624Z,0
2018-06-17T03:11:23.000Z,0
2018-06-17T03:12:24.350Z,0
2018-06-17T03:13:25.730Z,5
2018-06-17T03:14:27.111Z,5
2018-06-17T03:15:29.184Z,5
2018-06-17T03:16:30.560Z,5
2018-06-17T03:17:31.926Z,5
2018-06-17T03:18:33.292Z,11
2018-06-17T03:19:34.659Z,11
2018-06-17T03:20:36.026Z,11
2018-06-17T03:21:37.387Z,11
2018-06-17T03:22:38.772Z,11
2018-06-17T03:23:40.133Z,16
2018-06-17T03:24:41.541Z,16
2018-06-17T03:25:42.854Z,16
2018-06-17T03:26:44.222Z,16
2018-06-17T03:27:45.603Z,22
2018-06-17T03:28:46.970Z,22
2018-06-17T03:29:48.330Z,22
2018-06-17T03:30:49.715Z,28
2018-06-17T03:31:51.081Z,28
2018-06-17T03:32:52.453Z,28
2018-06-17T03:33:53.816Z,33
2018-06-17T03:34:55.196Z,33
2018-06-17T03:35:56.561Z,33
2018-06-17T03:36:58.908Z,39
2018-06-17T03:38:00.290Z,39
2018-06-17T03:39:01.661Z,39
2018-06-17T03:40:03.021Z,45
2018-06-17T03:41:04.382Z,45
2018-06-17T03:42:05.751Z,50
2018-06-17T03:43:07.127Z,50
2018-06-17T03:44:08.510Z,56
2018-06-17T03:45:09.881Z,56
2018-06-17T03:46:11.230Z,61
2018-06-17T03:47:12.596Z,61
2018-06-17T03:48:13.976Z,61
2018-06-17T03:49:15.346Z,61
2018-06-17T03:50:16.711Z,67
2018-06-17T03:51:18.072Z,67
2018-06-17T03:52:19.436Z,67
2018-06-17T03:53:20.806Z,73
2018-06-17T03:54:22.172Z,73
2018-06-17T03:55:23.538Z,78
2018-06-17T03:56:24.906Z,78
2018-06-17T03:57:26.266Z,78
2018-06-17T03:58:28.306Z,78
2018-06-17T03:59:28.972Z,84
2018-06-17T04:00:30.368Z,84
2018-06-17T04:01:31.726Z,90
2018-06-17T04:02:33.094Z,90
2018-06-17T04:03:34.466Z,95
2018-06-17T04:04:35.836Z,95
2018-06-17T04:05:37.212Z,95
2018-06-17T04:06:38.574Z,95
2018-06-17T04:07:39.933Z,95
2018-06-17T04:08:41.296Z,95
2018-06-17T04:09:42.671Z,101
2018-06-17T04:10:44.037Z,101
2018-06-17T04:11:45.403Z,106
2018-06-17T04:12:46.768Z,112
2018-06-17T04:13:48.131Z,112
2018-06-17T04:14:49.502Z,112
2018-06-17T04:15:50.881Z,118
2018-06-17T04:16:52.255Z,118
2018-06-17T04:17:53.640Z,123
2018-06-17T04:18:54.996Z,123
2018-06-17T04:19:56.371Z,129
2018-06-17T04:20:57.738Z,135
2018-06-17T04:21:59.116Z,140
2018-06-17T04:23:00.481Z,140
2018-06-17T04:24:01.859Z,146
2018-06-17T04:25:03.226Z,146
2018-06-17T04:26:04.592Z,151
2018-06-17T04:27:05.962Z,151
2018-06-17T04:28:07.348Z,157
2018-06-17T04:29:08.717Z,163
2018-06-17T04:30:10.079Z,168
2018-06-17T04:31:11.461Z,180
2018-06-17T04:32:12.831Z,185
2018-06-17T04:33:14.196Z,196
2018-06-17T04:34:15.567Z,208
2018-06-17T04:35:16.931Z,213
2018-06-17T04:36:18.292Z,219
2018-06-17T04:37:19.666Z,219
2018-06-17T04:38:21.051Z,219
2018-06-17T04:39:22.420Z,219
2018-06-17T04:40:23.781Z,213
2018-06-17T04:41:25.148Z,219
2018-06-17T04:42:26.516Z,219
2018-06-17T04:43:27.901Z,225
2018-06-17T04:44:29.251Z,230
2018-06-17T04:45:30.621Z,236
2018-06-17T04:46:31.991Z,241
2018-06-17T04:47:33.353Z,247
2018-06-17T04:48:34.727Z,258
2018-06-17T04:49:36.086Z,270
2018-06-17T04:50:37.457Z,292
2018-06-17T04:51:38.821Z,309
2018-06-17T04:52:40.187Z,331
2018-06-17T04:53:41.567Z,354
2018-06-17T04:54:42.931Z,371
2018-06-17T04:55:44.299Z,376
2018-06-17T04:56:45.672Z,371
2018-06-17T04:57:47.046Z,348
2018-06-17T04:58:48.428Z,348
2018-06-17T04:59:49.798Z,354
2018-06-17T05:00:51.166Z,360
2018-06-17T05:01:52.532Z,360
2018-06-17T05:02:53.893Z,371
2018-06-17T05:03:55.264Z,382
2018-06-17T05:04:56.654Z,421
2018-06-17T05:05:58.048Z,450
2018-06-17T05:06:59.422Z,472
2018-06-17T05:08:00.797Z,483
2018-06-17T05:09:02.232Z,500
2018-06-17T05:10:03.620Z,466
2018-06-17T05:11:04.976Z,450
2018-06-17T05:12:06.347Z,405
2018-06-17T05:13:07.729Z,382
2018-06-17T05:14:09.098Z,360
2018-06-17T05:15:10.467Z,360
2018-06-17T05:16:11.843Z,382
2018-06-17T05:17:13.276Z,388
2018-06-17T05:18:14.589Z,371
2018-06-17T05:19:15.957Z,365
2018-06-17T05:20:17.327Z,348
2018-06-17T05:21:18.703Z,337
2018-06-17T05:22:20.068Z,343
2018-06-17T05:23:21.440Z,348
2018-06-17T05:24:22.803Z,365
2018-06-17T05:25:24.174Z,410
2018-06-17T05:26:25.547Z,455
2018-06-17T05:27:26.912Z,483
2018-06-17T05:28:28.334Z,517
2018-06-17T05:29:29.722Z,556
2018-06-17T05:30:31.087Z,573
2018-06-17T05:31:32.459Z,562
2018-06-17T05:32:33.817Z,534
2018-06-17T05:33:35.190Z,506
2018-06-17T05:34:36.575Z,489
2018-06-17T05:35:37.948Z,663
2018-06-17T05:36:39.394Z,573
2018-06-17T05:37:40.768Z,641
2018-06-17T05:38:42.137Z,691
2018-06-17T05:39:43.534Z,686
2018-06-17T05:40:44.922Z,680
2018-06-17T05:41:46.294Z,663
2018-06-17T05:42:47.670Z,562
2018-06-17T05:43:49.039Z,596
2018-06-17T05:44:50.419Z,641
2018-06-17T05:45:51.799Z,641
2018-06-17T05:46:53.169Z,832
2018-06-17T05:47:54.548Z,838
2018-06-17T05:48:55.920Z,939
2018-06-17T05:49:57.300Z,945
2018-06-17T05:50:59.507Z,1018
2018-06-17T05:52:00.879Z,1102
2018-06-17T05:53:02.253Z,1153
2018-06-17T05:54:03.625Z,1209
2018-06-17T05:55:05.009Z,1226
2018-06-17T05:56:06.994Z,1226
2018-06-17T05:57:08.385Z,1175
2018-06-17T05:58:09.774Z,1130
2018-06-17T05:59:11.153Z,1181
2018-06-17T06:00:12.530Z,1046
2018-06-17T06:01:13.915Z,1181
2018-06-17T06:02:15.327Z,1203
2018-06-17T06:03:16.713Z,1254
2018-06-17T06:04:18.094Z,1293
2018-06-17T06:05:19.486Z,1310
2018-06-17T06:06:20.855Z,1321
2018-06-17T06:07:22.235Z,1350
2018-06-17T06:08:23.624Z,1383
2018-06-17T06:09:25.013Z,1378
2018-06-17T06:10:26.452Z,1383
2018-06-17T06:11:27.786Z,1417
2018-06-17T06:12:29.163Z,1434
2018-06-17T06:13:30.544Z,1479
2018-06-17T06:14:31.923Z,1501
2018-06-17T06:15:33.304Z,1518
2018-06-17T06:16:34.676Z,1473
2018-06-17T06:17:36.070Z,1164
2018-06-17T06:18:37.443Z,1153
2018-06-17T06:19:38.835Z,1490
2018-06-17T06:20:40.213Z,1524
2018-06-17T06:21:41.591Z,1513
2018-06-17T06:22:42.969Z,1530
2018-06-17T06:23:44.340Z,1580
2018-06-17T06:24:45.787Z,1608
2018-06-17T06:25:47.143Z,1597
2018-06-17T06:26:48.540Z,1575
2018-06-17T06:27:49.932Z,1597
2018-06-17T06:28:51.310Z,1614
2018-06-17T06:29:52.685Z,1614
2018-06-17T06:30:54.089Z,1648
2018-06-17T06:31:55.455Z,1614
2018-06-17T06:32:56.838Z,1642
2018-06-17T06:33:58.429Z,1648
2018-06-17T06:34:59.815Z,1693
2018-06-17T06:36:01.199Z,1721
2018-06-17T06:37:02.578Z,1760
2018-06-17T06:38:03.955Z,1760
2018-06-17T06:39:05.353Z,1755
2018-06-17T06:40:06.736Z,1687
2018-06-17T06:41:08.118Z,1771
2018-06-17T06:42:09.495Z,1828
2018-06-17T06:43:10.885Z,1777
2018-06-17T06:44:12.261Z,1755
2018-06-17T06:45:13.657Z,1788
2018-06-17T06:46:15.035Z,1822
2018-06-17T06:47:16.422Z,1850
2018-06-17T06:48:17.805Z,1923
2018-06-17T06:49:19.180Z,1923
2018-06-17T06:50:20.557Z,1946
2018-06-17T06:51:21.944Z,1935
2018-06-17T06:52:23.324Z,1912
2018-06-17T06:53:24.720Z,1957
2018-06-17T06:54:26.108Z,1991
2018-06-17T06:55:27.488Z,1968
2018-06-17T06:56:28.875Z,1951
2018-06-17T06:57:30.262Z,2025
2018-06-17T06:58:31.645Z,2036
2018-06-17T06:59:33.024Z,2053
2018-06-17T07:00:34.400Z,2053
2018-06-17T07:01:35.790Z,2120
2018-06-17T07:02:37.198Z,2109
2018-06-17T07:03:38.580Z,2103
2018-06-17T07:04:39.966Z,2154
2018-06-17T07:05:41.343Z,2120
2018-06-17T07:06:42.725Z,1951
2018-06-17T07:07:44.114Z,2053
2018-06-17T07:08:45.560Z,1996
2018-06-17T07:09:46.961Z,2019
2018-06-17T07:10:48.350Z,1980
2018-06-17T07:11:49.725Z,1985
2018-06-17T07:12:51.999Z,2019
2018-06-17T07:13:53.375Z,1923
2018-06-17T07:14:54.755Z,2115
2018-06-17T07:15:56.141Z,2030
2018-06-17T07:16:57.529Z,2081
2018-06-17T07:17:58.959Z,2154
2018-06-17T07:19:00.365Z,2081
2018-06-17T07:20:01.737Z,2148
2018-06-17T07:21:03.119Z,2261
2018-06-17T07:22:04.509Z,2300
2018-06-17T07:23:05.893Z,2233
2018-06-17T07:24:07.271Z,2283
2018-06-17T07:25:08.722Z,2351
2018-06-17T07:26:10.052Z,2458
2018-06-17T07:27:11.438Z,2536
2018-06-17T07:28:12.811Z,2503
2018-06-17T07:29:14.200Z,1738
2018-06-17T07:30:15.584Z,2435
2018-06-17T07:31:16.973Z,2413
2018-06-17T07:32:18.343Z,2424
2018-06-17T07:33:19.752Z,2311
2018-06-17T07:34:21.146Z,2306
2018-06-17T07:35:22.525Z,2407
2018-06-17T07:36:23.910Z,2491
2018-06-17T07:37:25.286Z,2536
2018-06-17T07:38:26.671Z,2553
2018-06-17T07:39:28.124Z,2486
2018-06-17T07:40:29.605Z,2480
2018-06-17T07:41:30.970Z,1738
2018-06-17T07:42:32.356Z,888
2018-06-17T07:43:33.739Z,2171
2018-06-17T07:44:35.115Z,2210
2018-06-17T07:45:36.500Z,871
2018-06-17T07:46:37.876Z,2666
2018-06-17T07:47:39.265Z,1035
2018-06-17T07:48:40.650Z,798
2018-06-17T07:49:42.029Z,2250
2018-06-17T07:50:43.415Z,2700
2018-06-17T07:51:44.797Z,1755
2018-06-17T07:52:46.179Z,669
2018-06-17T07:53:47.561Z,731
2018-06-17T07:54:48.935Z,2643
2018-06-17T07:55:50.344Z,2643
2018-06-17T07:56:51.728Z,2745
2018-06-17T07:57:53.107Z,2773
2018-06-17T07:58:54.496Z,2677
2018-06-17T07:59:55.875Z,2902
2018-06-17T08:00:57.256Z,2739
2018-06-17T08:01:58.670Z,2745
2018-06-17T08:03:00.086Z,2784
2018-06-17T08:04:01.480Z,2728
2018-06-17T08:05:02.870Z,2801
2018-06-17T08:06:04.247Z,2801
2018-06-17T08:07:05.634Z,2733
2018-06-17T08:08:07.010Z,2745
2018-06-17T08:09:08.396Z,2688
2018-06-17T08:10:09.770Z,2750
2018-06-17T08:11:11.169Z,1558
2018-06-17T08:12:12.549Z,990
2018-06-17T08:13:13.939Z,2885
2018-06-17T08:14:15.327Z,2896
2018-06-17T08:15:16.715Z,2880
2018-06-17T08:16:18.103Z,2936
2018-06-17T08:17:19.492Z,2998
2018-06-17T08:18:20.897Z,2908
2018-06-17T08:19:22.286Z,2880
2018-06-17T08:20:23.679Z,2829
2018-06-17T08:21:25.056Z,2885
2018-06-17T08:22:26.449Z,2846
2018-06-17T08:23:27.841Z,2953
2018-06-17T08:24:29.231Z,2998
2018-06-17T08:25:30.627Z,2998
2018-06-17T08:26:32.046Z,3015
2018-06-17T08:27:33.432Z,2930
2018-06-17T08:28:34.820Z,3048
2018-06-17T08:29:36.216Z,3121
2018-06-17T08:30:37.594Z,3020
2018-06-17T08:31:38.983Z,1473
2018-06-17T08:32:40.366Z,1006
2018-06-17T08:33:41.753Z,2559
2018-06-17T08:34:43.150Z,1203
2018-06-17T08:35:44.528Z,2548
2018-06-17T08:36:45.924Z,2345
2018-06-17T08:37:47.306Z,2160
2018-06-17T08:38:48.687Z,2064
2018-06-17T08:39:50.067Z,1023
2018-06-17T08:40:51.465Z,2441
2018-06-17T08:41:52.827Z,2109
2018-06-17T08:42:54.216Z,2660
2018-06-17T08:43:55.611Z,2756
2018-06-17T08:44:56.997Z,2840
2018-06-17T08:45:59.140Z,3043
2018-06-17T08:47:00.516Z,3206
2018-06-17T08:48:01.927Z,1923
2018-06-17T08:49:03.336Z,1428
2018-06-17T08:50:04.726Z,1181
2018-06-17T08:51:06.116Z,1428
2018-06-17T08:52:07.506Z,1445
2018-06-17T08:53:08.882Z,1102
2018-06-17T08:54:10.275Z,1226
2018-06-17T08:55:11.663Z,1642
2018-06-17T08:56:13.932Z,2255
2018-06-17T08:57:15.323Z,1681
2018-06-17T08:58:16.717Z,1721
2018-06-17T08:59:18.123Z,1760
2018-06-17T09:00:19.506Z,1355
2018-06-17T09:01:20.887Z,1299
2018-06-17T09:02:22.278Z,1265
2018-06-17T09:03:23.668Z,1288
2018-06-17T09:04:25.051Z,1321
2018-06-17T09:05:26.431Z,1372
2018-06-17T09:06:28.562Z,1501
2018-06-17T09:07:29.940Z,1755
2018-06-17T09:08:31.332Z,2626
2018-06-17T09:09:32.735Z,2103
2018-06-17T09:10:34.127Z,1631
2018-06-17T09:11:35.810Z,3780
2018-06-17T09:12:37.194Z,2283
2018-06-17T09:13:38.580Z,2480
2018-06-17T09:14:39.951Z,1569
2018-06-17T09:15:41.346Z,1620
2018-06-17T09:16:42.722Z,1456
2018-06-17T09:17:44.105Z,1710
2018-06-17T09:18:45.493Z,3965
2018-06-17T09:19:46.877Z,1586
2018-06-17T09:20:48.270Z,1665
2018-06-17T09:21:49.657Z,3346
2018-06-17T09:22:51.040Z,2120
2018-06-17T09:23:52.423Z,1625
2018-06-17T09:24:53.816Z,1535
2018-06-17T09:25:55.206Z,1451
2018-06-17T09:26:56.587Z,1333
2018-06-17T09:27:58.010Z,1209
2018-06-17T09:28:59.427Z,1091
2018-06-17T09:30:00.804Z,1006
2018-06-17T09:31:02.181Z,967
2018-06-17T09:32:03.630Z,933
2018-06-17T09:33:04.964Z,922
2018-06-17T09:34:06.346Z,945
2018-06-17T09:35:07.732Z,1001
2018-06-17T09:36:09.128Z,1096
2018-06-17T09:37:10.513Z,1198
2018-06-17T09:38:11.902Z,1344
2018-06-17T09:39:13.283Z,1350
2018-06-17T09:40:14.662Z,1226
2018-06-17T09:41:16.049Z,1153
2018-06-17T09:42:17.428Z,1102
2018-06-17T09:43:18.812Z,1125
2018-06-17T09:44:20.281Z,1147
2018-06-17T09:45:21.528Z,1158
2018-06-17T09:46:22.907Z,1175
2018-06-17T09:47:24.293Z,1203
2018-06-17T09:48:25.668Z,1209
2018-06-17T09:49:27.048Z,1170
2018-06-17T09:50:28.435Z,1136
2018-06-17T09:51:29.839Z,1091
2018-06-17T09:52:31.206Z,1085
2018-06-17T09:53:32.603Z,1085
2018-06-17T09:54:34.013Z,1080
2018-06-17T09:55:35.397Z,1091
2018-06-17T09:56:36.779Z,1136
2018-06-17T09:57:38.157Z,1192
2018-06-17T09:58:39.542Z,1220
2018-06-17T09:59:40.927Z,1254
2018-06-17T10:00:42.301Z,1288
2018-06-17T10:01:43.731Z,1310
2018-06-17T10:02:45.091Z,1305
2018-06-17T10:03:46.471Z,1237
2018-06-17T10:04:47.858Z,1181
2018-06-17T10:05:49.237Z,1141
2018-06-17T10:06:50.640Z,1130
2018-06-17T10:07:52.012Z,1085
2018-06-17T10:08:53.440Z,1091
2018-06-17T10:09:54.773Z,1181
2018-06-17T10:10:56.157Z,1338
2018-06-17T10:11:57.546Z,1400
2018-06-17T10:12:58.919Z,1473
2018-06-17T10:14:00.312Z,1580
2018-06-17T10:15:01.701Z,1681
2018-06-17T10:16:03.094Z,1901
2018-06-17T10:17:04.438Z,1833
2018-06-17T10:18:05.813Z,1698
2018-06-17T10:19:07.197Z,1417
2018-06-17T10:20:08.583Z,1473
2018-06-17T10:21:09.966Z,1468
2018-06-17T10:22:11.343Z,1456
2018-06-17T10:23:12.720Z,2328
2018-06-17T10:24:14.124Z,2570
2018-06-17T10:25:15.533Z,3763
2018-06-17T10:26:16.928Z,2885
2018-06-17T10:27:18.303Z,2553
2018-06-17T10:28:19.686Z,2295
2018-06-17T10:29:21.111Z,3071
2018-06-17T10:30:22.432Z,2514
2018-06-17T10:31:23.816Z,1873
2018-06-17T10:32:25.198Z,1755
2018-06-17T10:33:26.576Z,3245
2018-06-17T10:34:28.672Z,2272
2018-06-17T10:35:30.055Z,2576
2018-06-17T10:36:31.443Z,3628
2018-06-17T10:37:32.823Z,3301
2018-06-17T10:38:34.206Z,2160
2018-06-17T10:39:35.798Z,1805
2018-06-17T10:40:37.198Z,1676
2018-06-17T10:41:38.577Z,1788
2018-06-17T10:42:39.973Z,1659
2018-06-17T10:43:41.357Z,2109
2018-06-17T10:44:42.738Z,1198
2018-06-17T10:45:44.127Z,1063
2018-06-17T10:46:45.517Z,973
2018-06-17T10:47:46.924Z,905
2018-06-17T10:48:48.362Z,871
2018-06-17T10:49:49.702Z,871
2018-06-17T10:50:51.083Z,871
2018-06-17T10:51:52.464Z,877
2018-06-17T10:52:53.839Z,883
2018-06-17T10:53:55.213Z,877
2018-06-17T10:54:56.594Z,843
2018-06-17T10:55:58.154Z,798
2018-06-17T10:56:59.377Z,781
2018-06-17T10:58:00.777Z,804
2018-06-17T10:59:02.157Z,871
2018-06-17T11:00:03.543Z,973
2018-06-17T11:01:04.935Z,1091
2018-06-17T11:02:06.312Z,1293
2018-06-17T11:03:07.689Z,1445
2018-06-17T11:04:09.087Z,1710
2018-06-17T11:05:10.483Z,1676
2018-06-17T11:06:11.859Z,1423
2018-06-17T11:07:13.243Z,1366
2018-06-17T11:08:14.632Z,1383
2018-06-17T11:09:16.002Z,1738
2018-06-17T11:10:17.392Z,1811
2018-06-17T11:11:18.774Z,2430
2018-06-17T11:12:20.164Z,2266
2018-06-17T11:13:21.615Z,2002
2018-06-17T11:14:22.929Z,2812
2018-06-17T11:15:24.313Z,2475
2018-06-17T11:16:25.714Z,2053
2018-06-17T11:17:27.096Z,1715
2018-06-17T11:18:28.485Z,1749
2018-06-17T11:19:29.883Z,1721
2018-06-17T11:20:31.303Z,1625
2018-06-17T11:21:32.690Z,1479
2018-06-17T11:22:34.082Z,1473
2018-06-17T11:23:35.469Z,1558
2018-06-17T11:24:36.849Z,1614
2018-06-17T11:25:38.239Z,1485
2018-06-17T11:26:39.680Z,1468
2018-06-17T11:27:40.964Z,1355
2018-06-17T11:28:42.345Z,1361
2018-06-17T11:29:43.748Z,1400
2018-06-17T11:30:45.124Z,1434
2018-06-17T11:31:46.505Z,1473
2018-06-17T11:32:47.898Z,1513
2018-06-17T11:33:49.287Z,1597
2018-06-17T11:34:50.666Z,1749
2018-06-17T11:35:52.050Z,1963
2018-06-17T11:36:53.447Z,2103
2018-06-17T11:37:54.814Z,2053
2018-06-17T11:38:56.235Z,2188
2018-06-17T11:39:57.594Z,2176
2018-06-17T11:40:58.990Z,3324
2018-06-17T11:42:00.420Z,1738
2018-06-17T11:43:01.815Z,1698
2018-06-17T11:44:03.189Z,2070
2018-06-17T11:45:04.575Z,2716
2018-06-17T11:46:05.991Z,2261
2018-06-17T11:47:07.413Z,1805
2018-06-17T11:48:08.805Z,2103
2018-06-17T11:49:10.213Z,2098
2018-06-17T11:50:11.595Z,2328
2018-06-17T11:51:13.009Z,2542
2018-06-17T11:52:14.399Z,2272
2018-06-17T11:53:15.779Z,1243
2018-06-17T11:54:17.173Z,1113
2018-06-17T11:55:18.543Z,1074
2018-06-17T11:56:19.968Z,1074
2018-06-17T11:57:21.347Z,1068
2018-06-17T11:58:22.752Z,1091
2018-06-17T11:59:24.169Z,1119
2018-06-17T12:00:25.559Z,1136
2018-06-17T12:01:26.949Z,1130
2018-06-17T12:02:28.473Z,1119
2018-06-17T12:03:29.867Z,1102
2018-06-17T12:04:31.255Z,1080
2018-06-17T12:05:32.641Z,1046
2018-06-17T12:06:34.035Z,1001
2018-06-17T12:07:35.419Z,961
2018-06-17T12:08:36.807Z,933
2018-06-17T12:09:38.193Z,900
2018-06-17T12:10:39.578Z,877
2018-06-17T12:11:40.961Z,877
2018-06-17T12:12:42.333Z,894
2018-06-17T12:13:43.712Z,950
2018-06-17T12:14:45.126Z,1023
2018-06-17T12:15:46.484Z,1068
2018-06-17T12:16:47.873Z,1130
2018-06-17T12:17:49.248Z,1226
2018-06-17T12:18:50.636Z,1338
2018-06-17T12:19:52.014Z,1451
2018-06-17T12:20:53.393Z,1541
2018-06-17T12:21:54.768Z,1755
2018-06-17T12:22:56.151Z,1771
2018-06-17T12:23:57.542Z,1721
2018-06-17T12:24:58.943Z,1636
2018-06-17T12:26:00.321Z,1648
2018-06-17T12:27:01.731Z,1620
2018-06-17T12:28:03.109Z,1721
2018-06-17T12:29:04.503Z,1620
2018-06-17T12:30:05.874Z,1558
2018-06-17T12:31:07.254Z,1462
2018-06-17T12:32:08.639Z,1316
2018-06-17T12:33:10.024Z,1316
2018-06-17T12:34:11.418Z,1226
2018-06-17T12:35:12.794Z,1231
2018-06-17T12:36:14.181Z,1237
2018-06-17T12:37:15.556Z,1271
2018-06-17T12:38:16.929Z,1305
2018-06-17T12:39:18.324Z,1400
2018-06-17T12:40:19.705Z,1434
2018-06-17T12:41:21.107Z,1456
2018-06-17T12:42:22.480Z,1462
2018-06-17T12:43:23.866Z,1462
2018-06-17T12:44:25.254Z,1428
2018-06-17T12:45:26.635Z,1372
2018-06-17T12:46:28.081Z,1327
2018-06-17T12:47:29.460Z,1305
2018-06-17T12:48:30.860Z,1265
2018-06-17T12:49:32.238Z,1237
2018-06-17T12:50:33.694Z,1220
2018-06-17T12:51:34.962Z,1203
2018-06-17T12:52:36.356Z,1175
2018-06-17T12:53:37.729Z,1164
2018-06-17T12:54:39.105Z,1237
2018-06-17T12:55:40.504Z,1260
2018-06-17T12:56:41.890Z,1248
2018-06-17T12:57:43.292Z,1231
2018-06-17T12:58:44.657Z,1215
2018-06-17T12:59:46.035Z,1175
2018-06-17T13:00:47.424Z,1102
2018-06-17T13:01:48.801Z,1040
2018-06-17T13:02:50.180Z,1006
2018-06-17T13:03:51.661Z,1018
2018-06-17T13:04:53.039Z,1085
2018-06-17T13:05:54.424Z,1181
2018-06-17T13:06:55.804Z,1237
2018-06-17T13:07:58.945Z,1288
2018-06-17T13:09:00.925Z,1355
2018-06-17T13:10:02.309Z,1417
2018-06-17T13:11:04.530Z,1462
2018-06-17T13:12:05.085Z,1726
2018-06-17T13:13:06.471Z,1586
2018-06-17T13:14:07.856Z,1603
2018-06-17T13:15:09.241Z,1631
2018-06-17T13:16:28.725Z,1715
2018-06-17T13:17:58.701Z,1771
2018-06-17T13:19:00.095Z,1794
2018-06-17T13:20:01.474Z,1636
2018-06-17T13:21:02.850Z,1530
2018-06-17T13:22:04.231Z,1530
2018-06-17T13:23:05.611Z,1693
2018-06-17T13:24:07.013Z,1417
2018-06-17T13:25:08.395Z,1321
2018-06-17T13:26:09.774Z,1276
2018-06-17T13:27:11.165Z,1338
2018-06-17T13:28:12.533Z,1288
2018-06-17T13:29:13.923Z,1231
2018-06-17T13:30:15.306Z,1243
2018-06-17T13:31:16.695Z,1541
2018-06-17T13:32:18.084Z,1378
2018-06-17T13:33:19.450Z,1428
2018-06-17T13:34:20.832Z,1501
2018-06-17T13:35:22.260Z,1366
2018-06-17T13:36:23.601Z,1333
2018-06-17T13:37:24.986Z,1338
2018-06-17T13:38:26.369Z,1378
2018-06-17T13:39:28.595Z,1248
2018-06-17T13:40:29.974Z,1209
2018-06-17T13:41:31.351Z,1181
2018-06-17T13:42:32.720Z,1164
2018-06-17T13:43:34.107Z,1147
2018-06-17T13:44:35.505Z,1130
2018-06-17T13:45:36.886Z,1282
2018-06-17T13:46:38.272Z,1186
2018-06-17T13:47:39.656Z,1074
2018-06-17T13:48:41.039Z,1068
2018-06-17T13:49:42.415Z,1091
2018-06-17T13:50:43.801Z,1113
2018-06-17T13:51:45.175Z,1119
2018-06-17T13:52:46.546Z,1108
2018-06-17T13:53:47.944Z,1085
2018-06-17T13:54:49.326Z,1074
2018-06-17T13:55:50.753Z,1068
2018-06-17T13:56:52.124Z,1091
2018-06-17T13:57:53.530Z,1141
2018-06-17T13:58:54.909Z,1074
2018-06-17T13:59:56.284Z,1085
2018-06-17T14:00:57.675Z,1096
2018-06-17T14:01:59.049Z,1113
2018-06-17T14:03:00.445Z,1136
2018-06-17T14:04:01.829Z,1164
2018-06-17T14:05:03.197Z,1215